Time;durP1;ratioP1;P1;durP2;ratioP2;P2;SDS_P1;SDS_P2;PMS_P1;PMS_P2;Temp;Humidity;BMP_temperature;BMP_pressure;BME280_temperature;BME280_humidity;BME280_pressure;Samples;Min_cycle;Max_cycle;Signal;HPM_P1;HPM_P2
2023/04/26 00:01:52;;;;;;;;;;;;;;;1.21;100.00;101958.09;5180787;28;19968;-72
2023/04/26 00:04:23;;;;;;;;;;;;;;;1.18;100.00;101966.19;5182662;28;19988;-72
2023/04/26 00:06:54;;;;;;;;;;;;;;;1.15;100.00;101968.97;5194117;28;19967;-72
2023/04/26 00:09:25;;;;;;;;;;;;;;;1.09;100.00;101969.28;5197285;28;20026;-72
2023/04/26 00:11:55;;;;;;;;;;;;;;;1.04;100.00;101960.75;5201590;28;20356;-72
2023/04/26 00:14:26;;;;;;;;;;;;;;;0.99;100.00;101966.25;5202631;28;19928;-72
2023/04/26 00:16:56;;;;;;;;;;;;;;;0.95;100.00;101955.91;5202651;28;20004;-72
2023/04/26 00:19:27;;;;;;;;;;;;;;;0.92;100.00;101964.88;5206023;28;19913;-72
2023/04/26 00:21:57;;;;;;;;;;;;;;;0.89;100.00;101966.78;5191067;28;20617;-72
2023/04/26 00:24:28;;;;;;;;;;;;;;;0.87;100.00;101968.66;5200986;28;19956;-72
2023/04/26 00:26:59;;;;;;;;;;;;;;;0.86;100.00;101967.81;5201232;28;19960;-71
2023/04/26 00:29:29;;;;;;;;;;;;;;;0.83;100.00;101962.69;5188952;28;19914;-71
2023/04/26 00:32:00;;;;;;;;;;;;;;;0.83;100.00;101961.81;5189394;28;19917;-72
2023/04/26 00:34:31;;;;;;;;;;;;;;;0.78;100.00;101964.69;5202832;28;19920;-72
2023/04/26 00:37:02;;;;;;;;;;;;;;;0.74;100.00;101958.69;5185154;28;20001;-72
2023/04/26 00:39:32;;;;;;;;;;;;;;;0.71;100.00;101968.56;5181805;28;19936;-72
2023/04/26 00:42:03;;;;;;;;;;;;;;;0.68;100.00;101966.06;5182527;28;19913;-72
2023/04/26 00:44:33;;;;;;;;;;;;;;;0.65;100.00;101968.84;5181973;28;19921;-72
2023/04/26 00:47:04;;;;;;;;;;;;;;;0.63;100.00;101971.59;5201088;28;20000;-72
2023/04/26 00:49:34;;;;;;;;;;;;;;;0.61;100.00;101965.53;5206379;28;19940;-71
2023/04/26 00:52:04;;;;;;;;;;;;;;;0.57;100.00;101965.75;5192979;28;19914;-72
2023/04/26 00:54:35;;;;;;;;;;;;;;;0.52;100.00;101968.63;5198606;28;19913;-72
2023/04/26 00:57:06;;;;;;;;;;;;;;;0.48;100.00;101967.91;5196923;28;19925;-72
2023/04/26 00:59:36;;;;;;;;;;;;;;;0.44;100.00;101958.41;5185071;28;20294;-72
2023/04/26 01:02:07;;;;;;;;;;;;;;;0.48;100.00;101951.19;5186030;28;19943;-72
2023/04/26 01:04:40;;;;;;;;;;;;;;;0.51;100.00;101961.63;5185639;28;19983;-72
2023/04/26 01:07:11;;;;;;;;;;;;;;;0.51;100.00;101964.28;5195220;28;20309;-72
2023/04/26 01:09:43;;;;;;;;;;;;;;;0.50;100.00;101965.16;5205367;28;19913;-72
2023/04/26 01:12:13;;;;;;;;;;;;;;;0.44;100.00;101968.13;5193359;28;19914;-72
2023/04/26 01:14:44;;;;;;;;;;;;;;;0.42;100.00;101967.34;5191034;28;19924;-72
2023/04/26 01:17:15;;;;;;;;;;;;;;;0.40;100.00;101964.78;5204587;28;19967;-72
2023/04/26 01:19:46;;;;;;;;;;;;;;;0.38;100.00;101964.00;5205105;28;19944;-72
2023/04/26 01:22:17;;;;;;;;;;;;;;;0.38;100.00;101971.06;5205816;28;19917;-72
2023/04/26 01:24:49;;;;;;;;;;;;;;;0.35;100.00;101965.91;5205003;28;19940;-72
2023/04/26 01:27:20;;;;;;;;;;;;;;;0.27;100.00;101970.72;5201633;28;19913;-71
2023/04/26 01:29:50;;;;;;;;;;;;;;;0.22;100.00;101968.28;5201610;28;19963;-72
2023/04/26 01:32:20;;;;;;;;;;;;;;;0.16;100.00;101974.72;5205405;28;19913;-72
2023/04/26 01:34:51;;;;;;;;;;;;;;;0.14;100.00;101978.34;5205508;28;20000;-71
2023/04/26 01:37:21;;;;;;;;;;;;;;;0.13;100.00;101977.50;5203220;28;19917;-72
2023/04/26 01:39:51;;;;;;;;;;;;;;;0.11;100.00;101976.72;5205007;28;19913;-72
2023/04/26 01:42:22;;;;;;;;;;;;;;;0.05;100.00;101971.72;5205457;28;19917;-72
2023/04/26 01:44:52;;;;;;;;;;;;;;;0.00;100.00;101971.09;5204302;28;20007;-72
2023/04/26 01:47:25;;;;;;;;;;;;;;;-0.03;100.00;101971.22;5182803;28;20341;-72
2023/04/26 01:49:55;;;;;;;;;;;;;;;-0.03;100.00;101968.59;5182866;28;19921;-72
2023/04/26 01:52:26;;;;;;;;;;;;;;;-0.03;100.00;101971.22;5198595;28;19919;-71
2023/04/26 01:55:02;;;;;;;;;;;;;;;-0.06;100.00;101968.72;5203587;28;19920;-72
2023/04/26 01:57:32;;;;;;;;;;;;;;;-0.09;100.00;101963.59;5192617;28;20393;-72
2023/04/26 02:00:05;;;;;;;;;;;;;;;-0.15;100.00;101961.22;5183754;28;19968;-72
2023/04/26 02:02:36;;;;;;;;;;;;;;;-0.19;100.00;101965.78;5197857;28;19913;-72
2023/04/26 02:05:08;;;;;;;;;;;;;;;-0.21;100.00;101958.88;5204976;28;20278;-72
2023/04/26 02:07:38;;;;;;;;;;;;;;;-0.22;100.00;101952.72;5203828;28;19920;-72
2023/04/26 02:10:14;;;;;;;;;;;;;;;-0.22;100.00;101962.44;5204294;28;19913;-72
2023/04/26 02:12:45;;;;;;;;;;;;;;;-0.22;100.00;101954.53;5205191;28;19913;-71
2023/04/26 02:15:15;;;;;;;;;;;;;;;-0.23;100.00;101958.09;5205076;28;19920;-72
2023/04/26 02:17:48;;;;;;;;;;;;;;;-0.29;100.00;101954.81;5198896;28;19956;-72
2023/04/26 02:20:18;;;;;;;;;;;;;;;-0.35;100.00;101957.72;5194503;28;19997;-72
2023/04/26 02:22:49;;;;;;;;;;;;;;;-0.39;100.00;101960.56;5190387;28;19936;-72
2023/04/26 02:25:20;;;;;;;;;;;;;;;-0.42;100.00;101956.28;5203951;28;19917;-71
2023/04/26 02:27:50;;;;;;;;;;;;;;;-0.46;100.00;101957.31;5190464;28;19917;-72
2023/04/26 02:30:20;;;;;;;;;;;;;;;-0.46;100.00;101953.84;5203924;28;20401;-72
2023/04/26 02:32:53;;;;;;;;;;;;;;;-0.48;100.00;101947.78;5195706;28;20285;-72
2023/04/26 02:35:24;;;;;;;;;;;;;;;-0.48;100.00;101948.66;5182824;28;19913;-72
2023/04/26 02:37:54;;;;;;;;;;;;;;;-0.47;100.00;101947.72;5182956;28;20032;-72
2023/04/26 02:40:25;;;;;;;;;;;;;;;-0.46;100.00;101936.22;5201203;28;19917;-72
2023/04/26 02:42:56;;;;;;;;;;;;;;;-0.45;100.00;101937.09;5203680;28;20000;-72
2023/04/26 02:45:26;;;;;;;;;;;;;;;-0.48;100.00;101935.47;5185014;28;20048;-72
2023/04/26 02:47:57;;;;;;;;;;;;;;;-0.50;100.00;101934.69;5196295;28;20007;-72
2023/04/26 02:50:27;;;;;;;;;;;;;;;-0.53;100.00;101934.81;5205013;28;20302;-71
2023/04/26 02:52:57;;;;;;;;;;;;;;;-0.56;100.00;101937.56;5189120;28;19982;-71
2023/04/26 02:55:28;;;;;;;;;;;;;;;-0.56;100.00;101934.94;5185247;28;19918;-71
2023/04/26 02:57:58;;;;;;;;;;;;;;;-0.58;100.00;101931.53;5183153;28;19921;-71
2023/04/26 03:00:29;;;;;;;;;;;;;;;-0.60;100.00;101936.03;5183906;28;19920;-72
2023/04/26 03:03:00;;;;;;;;;;;;;;;-0.63;100.00;101928.25;5183730;28;20301;-71
2023/04/26 03:05:30;;;;;;;;;;;;;;;-0.65;100.00;101935.38;5183671;28;20370;-71
2023/04/26 03:08:00;;;;;;;;;;;;;;;-0.70;100.00;101935.56;5182419;28;20298;-72
2023/04/26 03:10:31;;;;;;;;;;;;;;;-0.71;100.00;101936.47;5180594;28;20734;-71
2023/04/26 03:13:03;;;;;;;;;;;;;;;-0.70;100.00;101935.56;5189585;28;19925;-71
2023/04/26 03:15:33;;;;;;;;;;;;;;;-0.71;100.00;101925.06;5203907;28;19956;-71
2023/04/26 03:18:04;;;;;;;;;;;;;;;-0.68;100.00;101927.59;5195407;28;19949;-72
2023/04/26 03:20:34;;;;;;;;;;;;;;;-0.66;100.00;101928.34;5183121;28;19917;-71
2023/04/26 03:23:05;;;;;;;;;;;;;;;-0.64;100.00;101931.81;5203295;28;19913;-72
2023/04/26 03:25:36;;;;;;;;;;;;;;;-0.62;100.00;101935.22;5203437;28;19913;-72
2023/04/26 03:28:06;;;;;;;;;;;;;;;-0.61;100.00;101937.78;5201268;28;19913;-72
2023/04/26 03:30:37;;;;;;;;;;;;;;;-0.63;100.00;101939.63;5202827;28;19935;-72
2023/04/26 03:33:07;;;;;;;;;;;;;;;-0.64;100.00;101929.16;5192816;28;19913;-72
2023/04/26 03:35:37;;;;;;;;;;;;;;;-0.65;100.00;101930.09;5183168;28;19914;-72
2023/04/26 03:38:08;;;;;;;;;;;;;;;-0.65;100.00;101941.50;5198643;28;19983;-72
2023/04/26 03:40:38;;;;;;;;;;;;;;;-0.65;100.00;101938.84;5199310;28;19914;-72
2023/04/26 03:43:09;;;;;;;;;;;;;;;-0.61;100.00;101929.00;5183387;28;20400;-71
2023/04/26 03:45:39;;;;;;;;;;;;;;;-0.57;100.00;101925.31;5182610;28;19940;-71
2023/04/26 03:48:10;;;;;;;;;;;;;;;-0.56;100.00;101935.78;5196085;28;19920;-71
2023/04/26 03:50:40;;;;;;;;;;;;;;;-0.54;100.00;101919.94;5202387;28;19913;-72
2023/04/26 03:53:10;;;;;;;;;;;;;;;-0.55;100.00;101920.84;5184106;28;20338;-71
2023/04/26 03:55:41;;;;;;;;;;;;;;;-0.58;100.00;101918.34;5194476;28;19920;-72
2023/04/26 03:58:11;;;;;;;;;;;;;;;-0.62;100.00;101920.25;5181268;28;19967;-72
2023/04/26 04:00:42;;;;;;;;;;;;;;;-0.63;100.00;101917.69;5192646;28;19917;-73
2023/04/26 04:03:12;;;;;;;;;;;;;;;-0.65;100.00;101922.19;5201870;28;19961;-72
2023/04/26 04:05:43;;;;;;;;;;;;;;;-0.66;100.00;101928.34;5191819;28;19917;-72
2023/04/26 04:08:14;;;;;;;;;;;;;;;-0.67;100.00;101927.50;5181970;28;19924;-71
2023/04/26 04:10:44;;;;;;;;;;;;;;;-0.70;100.00;101929.41;5180636;28;19935;-71
2023/04/26 04:13:15;;;;;;;;;;;;;;;-0.74;100.00;101930.50;5182623;28;20007;-72
2023/04/26 04:15:46;;;;;;;;;;;;;;;-0.77;100.00;101938.53;5182528;28;20008;-72
2023/04/26 04:18:16;;;;;;;;;;;;;;;-0.80;100.00;101937.75;5193165;28;19918;-72
2023/04/26 04:20:46;;;;;;;;;;;;;;;-0.81;100.00;101938.66;5180819;28;19921;-71
2023/04/26 04:23:17;;;;;;;;;;;;;;;-0.81;100.00;101937.78;5185083;28;20000;-72
2023/04/26 04:25:48;;;;;;;;;;;;;;;-0.79;100.00;101935.97;5186806;28;19913;-71
2023/04/26 04:28:18;;;;;;;;;;;;;;;-0.77;100.00;101941.16;5189983;28;19984;-71
2023/04/26 04:30:48;;;;;;;;;;;;;;;-0.76;100.00;101945.50;5199623;28;19936;-71
2023/04/26 04:33:19;;;;;;;;;;;;;;;-0.76;100.00;101937.59;5207392;28;19916;-72
2023/04/26 04:35:49;;;;;;;;;;;;;;;-0.75;100.00;101945.47;5193563;28;19920;-72
2023/04/26 04:38:19;;;;;;;;;;;;;;;-0.72;100.00;101940.03;5205608;28;19917;-72
2023/04/26 04:40:50;;;;;;;;;;;;;;;-0.70;100.00;101934.69;5206367;28;19913;-72
2023/04/26 04:43:22;;;;;;;;;;;;;;;-0.72;100.00;101944.44;5206480;28;19920;-71
2023/04/26 04:45:52;;;;;;;;;;;;;;;-0.72;100.00;101928.63;5197241;28;20403;-71
2023/04/26 04:48:23;;;;;;;;;;;;;;;-0.69;100.00;101936.44;5184591;28;20072;-72
2023/04/26 04:50:53;;;;;;;;;;;;;;;-0.66;100.00;101936.25;5187280;28;19913;-71
2023/04/26 04:53:23;;;;;;;;;;;;;;;-0.67;100.00;101935.41;5206324;28;20564;-71
2023/04/26 04:55:54;;;;;;;;;;;;;;;-0.61;100.00;101939.56;5206269;28;20396;-71
2023/04/26 04:58:24;;;;;;;;;;;;;;;-0.56;100.00;101940.22;5204770;28;19917;-72
2023/04/26 05:00:55;;;;;;;;;;;;;;;-0.48;100.00;101940.72;5205815;28;19916;-72
2023/04/26 05:03:26;;;;;;;;;;;;;;;-0.38;100.00;101939.41;5206025;28;19921;-72
2023/04/26 05:05:56;;;;;;;;;;;;;;;-0.27;100.00;101944.19;5206046;28;19913;-72
2023/04/26 05:08:26;;;;;;;;;;;;;;;-0.16;100.00;101939.25;5205638;28;20385;-72
2023/04/26 05:10:58;;;;;;;;;;;;;;;-0.03;100.00;101935.13;5203916;28;19920;-72
2023/04/26 05:13:28;;;;;;;;;;;;;;;0.09;100.00;101951.31;5185525;28;19921;-71
2023/04/26 05:15:58;;;;;;;;;;;;;;;0.15;100.00;101944.00;5188744;28;19909;-72
2023/04/26 05:18:29;;;;;;;;;;;;;;;0.19;100.00;101944.69;5193385;28;19924;-71
2023/04/26 05:20:59;;;;;;;;;;;;;;;0.26;100.00;101948.75;5183990;28;19921;-72
2023/04/26 05:23:30;;;;;;;;;;;;;;;0.32;100.00;101952.88;5185268;28;20436;-72
2023/04/26 05:26:01;;;;;;;;;;;;;;;0.39;100.00;101964.84;5185330;28;19914;-72
2023/04/26 05:28:32;;;;;;;;;;;;;;;0.47;100.00;101960.06;5190700;28;19920;-72
2023/04/26 05:31:03;;;;;;;;;;;;;;;0.58;100.00;101956.91;5190372;28;20004;-72
2023/04/26 05:33:33;;;;;;;;;;;;;;;0.70;100.00;101962.44;5184284;28;19953;-72
2023/04/26 05:36:04;;;;;;;;;;;;;;;0.86;100.00;101967.81;5183791;28;19949;-72
2023/04/26 05:38:35;;;;;;;;;;;;;;;1.00;100.00;101968.00;5199477;28;19979;-72
2023/04/26 05:41:06;;;;;;;;;;;;;;;1.16;100.00;101961.91;5195330;28;19914;-72
2023/04/26 05:43:36;;;;;;;;;;;;;;;1.25;100.00;101962.28;5184127;28;19991;-72
2023/04/26 05:46:06;;;;;;;;;;;;;;;1.32;100.00;101967.28;5196186;28;19913;-72
2023/04/26 05:48:37;;;;;;;;;;;;;;;1.41;100.00;101975.59;5203825;28;19913;-73
2023/04/26 05:51:08;;;;;;;;;;;;;;;1.64;100.00;101969.06;5200165;28;19920;-73
2023/04/26 05:53:38;;;;;;;;;;;;;;;2.21;100.00;101968.63;5184632;28;20401;-73
2023/04/26 05:56:08;;;;;;;;;;;;;;;2.75;100.00;101982.38;5184551;28;19914;-74
2023/04/26 05:58:39;;;;;;;;;;;;;;;3.26;100.00;101978.47;5182528;28;19924;-73
2023/04/26 06:01:11;;;;;;;;;;;;;;;3.81;100.00;101984.88;5184008;28;20180;-74
2023/04/26 06:03:43;;;;;;;;;;;;;;;4.14;100.00;101981.91;5183566;28;19913;-74
2023/04/26 06:06:14;;;;;;;;;;;;;;;4.36;100.00;101973.41;5183255;28;20401;-74
2023/04/26 06:08:44;;;;;;;;;;;;;;;4.60;100.00;101971.84;5183710;28;19913;-73
2023/04/26 06:11:15;;;;;;;;;;;;;;;4.68;100.00;101979.31;5182740;28;19913;-74
2023/04/26 06:13:45;;;;;;;;;;;;;;;4.43;100.00;101976.56;5184076;28;19918;-74
2023/04/26 06:16:15;;;;;;;;;;;;;;;4.31;100.00;101981.69;5203021;28;19963;-73
2023/04/26 06:18:46;;;;;;;;;;;;;;;4.45;100.00;101987.94;5191296;28;19917;-73
2023/04/26 06:21:16;;;;;;;;;;;;;;;4.65;100.00;101993.66;5183172;28;19917;-73
2023/04/26 06:23:47;;;;;;;;;;;;;;;4.97;100.00;101992.47;5181843;28;19925;-73
2023/04/26 06:26:17;;;;;;;;;;;;;;;5.12;100.00;101997.66;5181234;28;19909;-73
2023/04/26 06:28:47;;;;;;;;;;;;;;;5.39;100.00;101994.06;5187490;28;19921;-73
2023/04/26 06:31:20;;;;;;;;;;;;;;;5.51;100.00;102011.84;5187980;28;19920;-73
2023/04/26 06:33:50;;;;;;;;;;;;;;;5.44;100.00;101998.13;5180595;28;19917;-73
2023/04/26 06:36:22;;;;;;;;;;;;;;;5.46;100.00;101995.34;5181208;28;19927;-73
2023/04/26 06:38:52;;;;;;;;;;;;;;;5.37;100.00;101993.31;5180261;28;19980;-73
2023/04/26 06:41:22;;;;;;;;;;;;;;;5.25;100.00;102002.97;5193025;28;19917;-73
2023/04/26 06:43:53;;;;;;;;;;;;;;;5.20;100.00;102002.44;5183081;28;19913;-73
2023/04/26 06:46:23;;;;;;;;;;;;;;;5.22;100.00;102008.53;5179930;28;19923;-73
2023/04/26 06:48:56;;;;;;;;;;;;;;;5.37;100.00;102011.94;5179915;28;20044;-73
2023/04/26 06:51:28;;;;;;;;;;;;;;;5.32;100.00;101998.97;5180813;28;20353;-74
2023/04/26 06:53:59;;;;;;;;;;;;;;;5.44;100.00;101997.28;5181608;28;19921;-73
2023/04/26 06:56:30;;;;;;;;;;;;;;;5.46;100.00;101988.22;5211654;28;20337;-73
2023/04/26 06:59:02;;;;;;;;;;;;;;;5.48;100.00;101996.09;5180948;28;19917;-74
2023/04/26 07:01:33;;;;;;;;;;;;;;;5.42;100.00;101997.38;5182828;28;19917;-73
2023/04/26 07:04:08;;;;;;;;;;;;;;;5.38;100.00;102003.03;5182408;28;19921;-73
2023/04/26 07:06:39;;;;;;;;;;;;;;;5.50;100.00;101996.00;5180851;28;19920;-73
2023/04/26 07:09:09;;;;;;;;;;;;;;;5.45;100.00;101999.81;5181040;28;19917;-73
2023/04/26 07:11:40;;;;;;;;;;;;;;;5.46;100.00;101996.19;5185995;28;19940;-72
2023/04/26 07:14:10;;;;;;;;;;;;;;;5.56;100.00;101996.41;5182020;28;19917;-73
2023/04/26 07:16:41;;;;;;;;;;;;;;;5.64;100.00;101993.22;5180478;28;19917;-73
2023/04/26 07:19:11;;;;;;;;;;;;;;;5.83;100.00;101996.31;5180257;28;19917;-73
2023/04/26 07:21:42;;;;;;;;;;;;;;;6.06;100.00;102000.03;5190281;28;19921;-73
2023/04/26 07:24:12;;;;;;;;;;;;;;;6.33;100.00;101983.91;5180725;28;20391;-73
2023/04/26 07:26:42;;;;;;;;;;;;;;;6.69;100.00;101993.69;5179410;28;20297;-74
2023/04/26 07:29:13;;;;;;;;;;;;;;;6.81;100.00;101988.41;5183710;28;20366;-73
2023/04/26 07:31:44;;;;;;;;;;;;;;;6.96;100.00;101985.44;5187285;28;19921;-73
2023/04/26 07:34:15;;;;;;;;;;;;;;;7.33;100.00;101980.00;5192456;28;19921;-73
2023/04/26 07:36:45;;;;;;;;;;;;;;;7.42;100.00;101986.44;5187010;28;19940;-73
2023/04/26 07:39:16;;;;;;;;;;;;;;;7.55;100.00;101987.19;5193423;28;19918;-73
2023/04/26 07:41:46;;;;;;;;;;;;;;;7.55;100.00;101991.69;5194379;28;19921;-73
2023/04/26 07:44:17;;;;;;;;;;;;;;;7.65;100.00;101990.84;5180796;28;19922;-73
2023/04/26 07:46:48;;;;;;;;;;;;;;;8.01;100.00;101989.78;5178554;28;19925;-73
2023/04/26 07:49:18;;;;;;;;;;;;;;;8.54;100.00;101986.47;5179480;28;19924;-73
2023/04/26 07:51:50;;;;;;;;;;;;;;;8.92;100.00;101996.69;5187027;28;19924;-73
2023/04/26 07:54:21;;;;;;;;;;;;;;;9.58;100.00;101993.78;5185416;28;19924;-73
2023/04/26 07:56:52;;;;;;;;;;;;;;;10.01;100.00;101992.75;5179007;28;19929;-73
2023/04/26 07:59:22;;;;;;;;;;;;;;;9.59;100.00;101992.84;5184702;28;19928;-73
2023/04/26 08:01:53;;;;;;;;;;;;;;;9.54;100.00;101982.50;5185745;28;19956;-73
2023/04/26 08:04:31;;;;;;;;;;;;;;;9.58;100.00;101985.75;5184986;28;19918;-73
2023/04/26 08:07:01;;;;;;;;;;;;;;;9.30;100.00;101985.44;5188880;28;19921;-73
2023/04/26 08:09:32;;;;;;;;;;;;;;;9.43;100.00;101981.72;5186460;28;19979;-73
2023/04/26 08:12:03;;;;;;;;;;;;;;;9.51;100.00;101987.28;5193096;28;19921;-73
2023/04/26 08:14:33;;;;;;;;;;;;;;;9.37;100.00;101988.44;5183924;28;19925;-73
2023/04/26 08:17:04;;;;;;;;;;;;;;;9.52;100.00;101989.81;5183173;28;19921;-73
2023/04/26 08:19:35;;;;;;;;;;;;;;;9.45;100.00;101993.16;5183507;28;20000;-73
2023/04/26 08:22:06;;;;;;;;;;;;;;;9.20;100.00;101992.56;5185042;28;20386;-73
2023/04/26 08:24:36;;;;;;;;;;;;;;;9.17;100.00;101989.28;5184017;28;19917;-73
2023/04/26 08:27:07;;;;;;;;;;;;;;;9.02;100.00;101967.31;5182152;28;19991;-73
2023/04/26 08:29:37;;;;;;;;;;;;;;;9.02;100.00;101978.03;5192075;28;19948;-73
2023/04/26 08:32:08;;;;;;;;;;;;;;;9.10;100.00;101978.25;5188851;28;19983;-73
2023/04/26 08:34:38;;;;;;;;;;;;;;;9.54;100.00;101974.47;5193012;28;19917;-73
2023/04/26 08:37:12;;;;;;;;;;;;;;;10.18;100.00;101973.31;5182376;28;19926;-73
2023/04/26 08:39:42;;;;;;;;;;;;;;;10.32;100.00;101967.63;5182741;28;19961;-73
2023/04/26 08:42:13;;;;;;;;;;;;;;;10.86;100.00;101968.13;5183298;28;19963;-73
2023/04/26 08:44:44;;;;;;;;;;;;;;;11.01;100.00;101971.25;5193009;28;19918;-73
2023/04/26 08:47:17;;;;;;;;;;;;;;;11.40;100.00;101972.91;5181477;28;19944;-73
2023/04/26 08:49:58;;;;;;;;;;;;;;;11.53;100.00;101967.19;5186265;28;20067;-73
2023/04/26 08:52:31;;;;;;;;;;;;;;;12.01;100.00;101962.69;5171752;28;20268;-73
2023/04/26 08:55:04;;;;;;;;;;;;;;;12.60;100.00;101955.97;5196392;28;19924;-73
2023/04/26 08:57:35;;;;;;;;;;;;;;;13.31;100.00;101960.53;5182138;28;19921;-74
2023/04/26 09:00:12;;;;;;;;;;;;;;;13.21;100.00;101955.19;5188199;28;20455;-73
2023/04/26 09:03:00;;;;;;;;;;;;;;;12.09;100.00;101957.41;5187966;28;19917;-73
2023/04/26 09:05:32;;;;;;;;;;;;;;;11.52;100.00;101960.13;5189371;28;19921;-73
2023/04/26 09:08:04;;;;;;;;;;;;;;;11.54;100.00;101951.91;5186823;28;19917;-73
2023/04/26 09:10:34;;;;;;;;;;;;;;;11.46;100.00;101958.03;5188352;28;19917;-73
2023/04/26 09:13:04;;;;;;;;;;;;;;;11.10;100.00;101949.75;5182871;28;19917;-73
2023/04/26 09:15:35;;;;;;;;;;;;;;;10.93;100.00;101945.09;5183112;28;19952;-73
2023/04/26 09:18:17;;;;;;;;;;;;;;;10.47;100.00;101951.13;5189005;28;20271;-73
2023/04/26 09:21:06;;;;;;;;;;;;;;;10.23;100.00;101951.47;5187889;28;20032;-73
2023/04/26 09:23:55;;;;;;;;;;;;;;;10.21;100.00;101948.09;5183366;28;19961;-73
2023/04/26 09:26:26;;;;;;;;;;;;;;;10.10;100.00;101946.38;5181077;28;19925;-73
2023/04/26 09:29:15;;;;;;;;;;;;;;;10.05;100.00;101948.59;5185518;28;20294;-73
2023/04/26 09:31:47;;;;;;;;;;;;;;;9.88;100.00;101951.91;5182105;28;20579;-73
2023/04/26 09:34:17;;;;;;;;;;;;;;;10.08;100.00;101951.84;5190316;28;20317;-73
2023/04/26 09:36:50;;;;;;;;;;;;;;;10.00;100.00;101954.38;5190334;28;19964;-73
2023/04/26 09:39:32;;;;;;;;;;;;;;;10.44;100.00;101954.97;5187414;28;19925;-73
2023/04/26 09:42:06;;;;;;;;;;;;;;;10.37;100.00;101953.78;5181964;28;19921;-73
2023/04/26 09:44:36;;;;;;;;;;;;;;;10.21;100.00;101951.63;5182521;28;20448;-73
2023/04/26 09:47:09;;;;;;;;;;;;;;;10.57;100.00;101955.53;5188684;28;19992;-73
2023/04/26 09:49:55;;;;;;;;;;;;;;;10.74;100.00;101947.75;5181681;28;19926;-73
2023/04/26 09:52:27;;;;;;;;;;;;;;;10.99;100.00;101952.56;5184718;28;20380;-73
2023/04/26 09:54:58;;;;;;;;;;;;;;;10.57;100.00;101955.53;5194553;28;19924;-73
2023/04/26 09:57:28;;;;;;;;;;;;;;;10.69;100.00;101950.88;5193473;28;19921;-73
2023/04/26 09:59:59;;;;;;;;;;;;;;;10.58;100.00;101959.91;5181138;28;20406;-73
2023/04/26 10:02:33;;;;;;;;;;;;;;;10.88;100.00;101960.78;5190416;28;19925;-73
2023/04/26 10:05:05;;;;;;;;;;;;;;;10.85;100.00;101959.22;5194037;28;19922;-73
2023/04/26 10:07:35;;;;;;;;;;;;;;;11.24;100.00;101950.28;5181099;28;19914;-73
2023/04/26 10:10:06;;;;;;;;;;;;;;;11.08;100.00;101943.66;5201942;28;19917;-73
2023/04/26 10:12:39;;;;;;;;;;;;;;;10.93;100.00;101946.94;5185679;28;19925;-73
2023/04/26 10:15:10;;;;;;;;;;;;;;;10.88;100.00;101950.03;5180771;28;19914;-73
2023/04/26 10:17:40;;;;;;;;;;;;;;;11.08;100.00;101943.66;5182096;28;19921;-73
2023/04/26 10:20:12;;;;;;;;;;;;;;;11.23;100.00;101946.75;5180885;28;19928;-73
2023/04/26 10:22:44;;;;;;;;;;;;;;;11.37;100.00;101945.47;5187858;28;19920;-73
2023/04/26 10:25:15;;;;;;;;;;;;;;;11.58;100.00;101935.34;5187081;28;19921;-73
2023/04/26 10:27:46;;;;;;;;;;;;;;;11.87;100.00;101939.81;5180034;28;19917;-73
2023/04/26 10:30:18;;;;;;;;;;;;;;;12.05;100.00;101937.19;5186629;28;20055;-74
2023/04/26 10:33:07;;;;;;;;;;;;;;;12.58;100.00;101934.59;5181886;28;19918;-74
2023/04/26 10:35:58;;;;;;;;;;;;;;;13.08;98.50;101935.88;5181307;28;19918;-73
2023/04/26 10:38:28;;;;;;;;;;;;;;;12.61;100.00;101934.28;5180103;28;19932;-73
2023/04/26 10:41:20;;;;;;;;;;;;;;;12.55;100.00;101925.97;5181018;28;19917;-74
2023/04/26 10:43:50;;;;;;;;;;;;;;;12.43;99.40;101918.13;5179852;28;19963;-74
2023/04/26 10:46:33;;;;;;;;;;;;;;;12.59;90.77;101924.66;5192340;28;19929;-73
2023/04/26 10:49:23;;;;;;;;;;;;;;;12.67;91.10;101906.75;5200308;28;19928;-74
2023/04/26 10:52:11;;;;;;;;;;;;;;;12.82;85.52;101903.53;5198927;28;19921;-74
2023/04/26 10:54:44;;;;;;;;;;;;;;;12.67;79.07;101905.91;5184651;28;20481;-74
2023/04/26 10:57:14;;;;;;;;;;;;;;;12.96;94.77;101908.34;5176068;28;19933;-74
2023/04/26 11:00:04;;;;;;;;;;;;;;;13.64;88.42;101904.94;5182950;28;19918;-74
2023/04/26 11:02:45;;;;;;;;;;;;;;;14.22;86.31;101894.22;5186469;28;19923;-74
2023/04/26 11:05:36;;;;;;;;;;;;;;;13.76;67.72;101900.13;5180148;28;20528;-74
2023/04/26 11:08:08;;;;;;;;;;;;;;;14.09;68.38;101898.41;5188392;28;19921;-74
2023/04/26 11:10:39;;;;;;;;;;;;;;;13.76;74.10;101892.88;5182627;28;20056;-74
2023/04/26 11:13:10;;;;;;;;;;;;;;;14.37;78.43;101893.59;5188209;28;20461;-74
2023/04/26 11:15:41;;;;;;;;;;;;;;;13.63;68.56;101901.41;5188090;28;19917;-74
2023/04/26 11:18:11;;;;;;;;;;;;;;;14.13;73.32;101883.56;5187468;28;19949;-74
2023/04/26 11:20:43;;;;;;;;;;;;;;;13.08;78.35;101892.78;5193688;28;20404;-74
2023/04/26 11:23:14;;;;;;;;;;;;;;;13.25;84.36;101883.81;5192375;28;20527;-74
2023/04/26 11:25:44;;;;;;;;;;;;;;;13.64;82.91;101880.69;5184365;28;19960;-73
2023/04/26 11:28:15;;;;;;;;;;;;;;;14.57;67.23;101880.66;5184705;28;20313;-74
2023/04/26 11:30:45;;;;;;;;;;;;;;;14.87;80.99;101871.06;5184951;28;19919;-73
2023/04/26 11:33:17;;;;;;;;;;;;;;;14.91;87.83;101869.66;5190322;28;19917;-74
2023/04/26 11:35:48;;;;;;;;;;;;;;;15.26;84.42;101860.31;5187117;28;19917;-74
2023/04/26 11:38:37;;;;;;;;;;;;;;;15.19;87.55;101870.16;5189287;28;19939;-74
2023/04/26 11:41:09;;;;;;;;;;;;;;;15.50;83.76;101872.94;5184871;28;19917;-74
2023/04/26 11:43:40;;;;;;;;;;;;;;;15.55;78.87;101867.84;5189744;28;19932;-74
2023/04/26 11:46:11;;;;;;;;;;;;;;;15.70;71.21;101868.84;5187327;28;19921;-73
2023/04/26 11:48:41;;;;;;;;;;;;;;;15.44;73.65;101870.94;5184902;28;19918;-74
2023/04/26 11:51:12;;;;;;;;;;;;;;;15.44;66.38;101866.38;5191928;28;19924;-74
2023/04/26 11:53:42;;;;;;;;;;;;;;;15.21;76.21;101868.97;5183869;28;19927;-74
2023/04/26 11:56:15;;;;;;;;;;;;;;;14.89;77.45;101863.59;5190623;28;19921;-74
2023/04/26 11:58:48;;;;;;;;;;;;;;;15.40;74.53;101856.91;5187930;28;20302;-74
2023/04/26 12:01:19;;;;;;;;;;;;;;;15.34;75.75;101862.19;5210697;28;19921;-74
2023/04/26 12:03:51;;;;;;;;;;;;;;;14.96;82.19;101857.38;5183679;28;19921;-74
2023/04/26 12:06:38;;;;;;;;;;;;;;;14.74;84.79;101860.75;5183079;28;19928;-74
2023/04/26 12:09:09;;;;;;;;;;;;;;;14.38;80.13;101858.31;5181758;28;19957;-74
2023/04/26 12:11:40;;;;;;;;;;;;;;;13.23;74.33;101864.28;5186801;28;19921;-74
2023/04/26 12:14:10;;;;;;;;;;;;;;;12.89;90.21;101864.19;5184935;28;20039;-74
2023/04/26 12:16:42;;;;;;;;;;;;;;;12.81;86.45;101872.22;5190268;28;20126;-74
2023/04/26 12:19:14;;;;;;;;;;;;;;;12.67;84.82;101863.69;5183951;28;19918;-74
2023/04/26 12:21:45;;;;;;;;;;;;;;;12.43;97.55;101866.97;5185467;28;19959;-74
2023/04/26 12:24:36;;;;;;;;;;;;;;;12.40;83.87;101870.00;5187182;28;20000;-74
2023/04/26 12:27:06;;;;;;;;;;;;;;;12.29;87.45;101869.34;5182143;28;19928;-74
2023/04/26 12:29:37;;;;;;;;;;;;;;;12.17;85.56;101860.66;5188246;28;19917;-74
2023/04/26 12:32:07;;;;;;;;;;;;;;;12.57;82.62;101865.59;5182979;28;19918;-74
2023/04/26 12:34:38;;;;;;;;;;;;;;;12.71;82.34;101866.91;5186611;28;19917;-74
2023/04/26 12:37:09;;;;;;;;;;;;;;;12.85;90.25;101868.19;5185098;28;19926;-74
2023/04/26 12:39:39;;;;;;;;;;;;;;;13.42;89.21;101858.69;5186431;28;19921;-74
2023/04/26 12:42:10;;;;;;;;;;;;;;;13.59;88.41;101869.53;5184209;28;19925;-74
2023/04/26 12:44:40;;;;;;;;;;;;;;;13.62;74.31;101871.91;5193777;28;19992;-74
2023/04/26 12:47:11;;;;;;;;;;;;;;;13.37;69.28;101870.94;5189399;28;20343;-74
2023/04/26 12:49:41;;;;;;;;;;;;;;;14.11;80.38;101862.16;5194151;28;20527;-74
2023/04/26 12:52:11;;;;;;;;;;;;;;;14.83;72.63;101873.22;5192133;28;20298;-74
2023/04/26 12:54:42;;;;;;;;;;;;;;;15.01;71.74;101867.66;5195178;28;20309;-74
2023/04/26 12:57:13;;;;;;;;;;;;;;;15.57;72.93;101863.13;5189604;28;20420;-74